createdAt,value
2023-05-03T00:02:18.285Z,77.48
2023-05-03T00:04:48.596Z,77.19
2023-05-03T00:07:16.903Z,76.65
2023-05-03T00:09:44.805Z,76.24
2023-05-03T00:12:12.474Z,75.92
2023-05-03T00:14:40.398Z,76.11
2023-05-03T00:17:08.243Z,76.06
2023-05-03T00:19:37.579Z,76.46
2023-05-03T00:22:05.242Z,76.92
2023-05-03T00:24:33.255Z,76.66
2023-05-03T00:27:01.668Z,76.48
2023-05-03T00:29:29.607Z,76.32
2023-05-03T00:31:57.312Z,76.03
2023-05-03T00:34:25.197Z,75.77
2023-05-03T00:36:52.821Z,75.82
2023-05-03T00:39:20.813Z,75.79
2023-05-03T00:41:48.461Z,75.81
2023-05-03T00:44:16.728Z,75.88
2023-05-03T00:46:44.459Z,75.82
2023-05-03T00:49:12.664Z,74.96
2023-05-03T00:51:42.089Z,74.25
2023-05-03T00:54:11.167Z,74.15
2023-05-03T00:56:48.395Z,74.03
2023-05-03T00:59:20.100Z,73.27
2023-05-03T01:01:52.551Z,72.28
2023-05-03T01:04:21.938Z,72.35
2023-05-03T01:06:51.267Z,72.90
2023-05-03T01:09:51.059Z,73.24
2023-05-03T01:12:36.179Z,72.34
2023-05-03T01:15:35.013Z,73.41
2023-05-03T01:18:12.520Z,73.65
2023-05-03T01:20:44.059Z,74.58
2023-05-03T01:23:22.210Z,75.11
2023-05-03T01:25:53.358Z,75.80
2023-05-03T01:28:21.503Z,76.92
2023-05-03T01:30:52.616Z,77.72
2023-05-03T01:33:40.717Z,79.04
2023-05-03T01:36:18.132Z,79.80
2023-05-03T01:38:47.288Z,80.92
2023-05-03T01:41:19.816Z,81.56
2023-05-03T01:43:48.904Z,81.87
2023-05-03T01:46:17.121Z,82.56
2023-05-03T01:48:47.290Z,83.33
2023-05-03T01:51:15.277Z,83.68
2023-05-03T01:53:43.928Z,83.86
2023-05-03T01:56:11.851Z,83.60
2023-05-03T01:58:39.627Z,83.56
2023-05-03T02:01:08.083Z,83.19
2023-05-03T02:03:36.049Z,82.52
2023-05-03T02:06:04.103Z,81.91
2023-05-03T02:08:31.797Z,81.50
2023-05-03T02:11:00.798Z,81.24
2023-05-03T02:13:28.519Z,81.23
2023-05-03T02:15:56.533Z,80.66
2023-05-03T02:18:24.666Z,80.68
2023-05-03T02:20:52.898Z,80.39
2023-05-03T02:23:20.557Z,80.42
2023-05-03T02:25:49.157Z,80.34
2023-05-03T02:28:16.838Z,80.02
2023-05-03T02:30:44.897Z,80.19
2023-05-03T02:33:12.690Z,80.48
2023-05-03T02:35:40.765Z,79.98
2023-05-03T02:38:09.146Z,79.99
2023-05-03T02:40:37.955Z,79.95
2023-05-03T02:43:06.130Z,80.00
2023-05-03T02:45:36.906Z,79.99
2023-05-03T02:48:04.933Z,80.20
2023-05-03T02:50:32.917Z,80.53
2023-05-03T02:53:00.772Z,80.78
2023-05-03T02:55:28.954Z,80.41
2023-05-03T02:57:56.855Z,80.26
2023-05-03T03:00:24.859Z,80.26
2023-05-03T03:02:52.760Z,80.21
2023-05-03T03:05:22.070Z,80.17
2023-05-03T03:07:51.667Z,80.02
2023-05-03T03:10:19.948Z,79.72
2023-05-03T03:12:47.934Z,79.14
2023-05-03T03:15:25.483Z,79.22
2023-05-03T03:17:57.728Z,79.41
2023-05-03T03:20:27.145Z,79.04
2023-05-03T03:22:55.178Z,78.94
2023-05-03T03:25:23.337Z,78.76
2023-05-03T03:27:51.080Z,78.70
2023-05-03T03:30:19.151Z,78.07
2023-05-03T03:32:57.110Z,77.63
2023-05-03T03:35:33.537Z,77.69
2023-05-03T03:38:02.078Z,77.68
2023-05-03T03:40:30.376Z,77.55
2023-05-03T03:42:58.865Z,77.34
2023-05-03T03:45:27.683Z,77.09
2023-05-03T03:47:58.194Z,75.82
2023-05-03T03:50:27.100Z,74.76
2023-05-03T03:52:54.798Z,74.14
2023-05-03T03:55:23.362Z,73.81
2023-05-03T03:57:54.098Z,73.99
2023-05-03T04:00:23.077Z,74.23
2023-05-03T04:02:59.770Z,74.56
2023-05-03T04:05:27.857Z,74.48
2023-05-03T04:07:55.641Z,73.47
2023-05-03T04:10:24.579Z,72.36
2023-05-03T04:12:52.195Z,72.24
2023-05-03T04:15:20.457Z,71.56
2023-05-03T04:17:49.575Z,71.32
2023-05-03T04:20:18.243Z,70.92
2023-05-03T04:22:49.235Z,70.36
2023-05-03T04:25:19.692Z,68.81
2023-05-03T04:27:56.885Z,68.07
2023-05-03T04:30:26.462Z,67.75
2023-05-03T04:32:59.589Z,67.02
2023-05-03T04:35:29.411Z,66.07
2023-05-03T04:37:59.012Z,64.17
2023-05-03T04:40:29.230Z,64.03
2023-05-03T04:43:05.469Z,63.61
2023-05-03T04:45:37.184Z,63.07
2023-05-03T04:48:05.632Z,60.57
2023-05-03T04:50:34.634Z,59.42
2023-05-03T04:53:03.996Z,57.84
2023-05-03T04:55:35.341Z,56.99
2023-05-03T04:58:05.362Z,55.58
2023-05-03T05:00:34.635Z,54.80
2023-05-03T05:03:09.216Z,53.49
2023-05-03T05:05:37.355Z,52.90
2023-05-03T05:08:05.348Z,51.57
2023-05-03T05:10:43.357Z,46.70
2023-05-03T05:13:15.979Z,46.17
2023-05-03T05:15:44.213Z,46.14
2023-05-03T05:18:13.856Z,46.05
2023-05-03T05:20:43.193Z,45.49
2023-05-03T05:23:12.266Z,44.37
2023-05-03T05:25:43.413Z,40.12
2023-05-03T05:28:11.543Z,37.87
2023-05-03T05:30:41.529Z,36.53
2023-05-03T05:33:09.693Z,36.07
2023-05-03T05:35:38.627Z,36.87
2023-05-03T05:38:06.395Z,38.13
2023-05-03T05:40:36.472Z,40.27
2023-05-03T05:43:04.999Z,41.83
2023-05-03T05:45:37.002Z,42.86
2023-05-03T05:48:06.410Z,41.37
2023-05-03T05:50:35.667Z,39.33
2023-05-03T05:53:09.749Z,38.29
2023-05-03T05:55:42.076Z,35.54
2023-05-03T05:58:13.056Z,35.45
2023-05-03T06:00:49.042Z,35.24
2023-05-03T06:03:17.865Z,32.38
2023-05-03T06:05:49.950Z,30.98
2023-05-03T06:08:17.634Z,29.64
2023-05-03T06:10:45.820Z,29.50
2023-05-03T06:13:13.848Z,30.01
2023-05-03T06:15:42.288Z,31.14
2023-05-03T06:18:10.157Z,30.36
2023-05-03T06:20:38.290Z,30.26
2023-05-03T06:23:06.411Z,30.44
2023-05-03T06:25:38.797Z,30.24
2023-05-03T06:28:07.168Z,30.01
2023-05-03T06:30:36.810Z,30.12
2023-05-03T06:33:13.605Z,29.68
2023-05-03T06:35:43.068Z,28.79
2023-05-03T06:38:12.117Z,27.67
2023-05-03T06:40:41.439Z,27.69
2023-05-03T06:43:09.109Z,27.48
2023-05-03T06:45:43.927Z,27.48
2023-05-03T06:48:11.686Z,26.83
2023-05-03T06:50:40.016Z,25.79
2023-05-03T06:53:07.767Z,24.93
2023-05-03T06:55:35.724Z,23.65
2023-05-03T06:58:03.549Z,23.62
2023-05-03T07:00:31.557Z,22.55
2023-05-03T07:02:59.394Z,21.86
2023-05-03T07:05:27.561Z,21.80
2023-05-03T07:07:55.208Z,21.39
2023-05-03T07:10:23.231Z,20.21
2023-05-03T07:12:51.428Z,19.81
2023-05-03T07:15:19.300Z,19.82
2023-05-03T07:17:47.029Z,18.71
2023-05-03T07:20:15.065Z,18.02
2023-05-03T07:22:42.705Z,17.69
2023-05-03T07:25:12.344Z,17.93
2023-05-03T07:27:40.131Z,17.94
2023-05-03T07:30:08.672Z,17.51
2023-05-03T07:32:36.498Z,16.87
2023-05-03T07:35:05.186Z,17.04
2023-05-03T07:37:32.798Z,17.09
2023-05-03T07:40:00.937Z,17.19
2023-05-03T07:42:28.766Z,16.58
2023-05-03T07:44:56.783Z,17.30
2023-05-03T07:47:24.717Z,16.64
2023-05-03T07:49:52.694Z,16.01
2023-05-03T07:52:20.852Z,15.27
2023-05-03T07:54:48.837Z,15.12
2023-05-03T07:57:16.790Z,14.99
2023-05-03T07:59:44.850Z,15.42
2023-05-03T08:02:12.638Z,15.80
2023-05-03T08:04:41.339Z,15.99
2023-05-03T08:07:09.717Z,16.32
2023-05-03T08:09:37.690Z,15.44
2023-05-03T08:12:05.729Z,15.79
2023-05-03T08:14:34.006Z,16.31
2023-05-03T08:17:01.737Z,16.04
2023-05-03T08:19:29.715Z,14.91
2023-05-03T08:21:58.528Z,14.90
2023-05-03T08:24:27.057Z,16.85
2023-05-03T08:26:55.605Z,18.53
2023-05-03T08:29:24.361Z,19.57
2023-05-03T08:31:53.602Z,20.77
2023-05-03T08:34:22.080Z,20.39
2023-05-03T08:36:49.847Z,18.51
2023-05-03T08:39:18.886Z,17.50
2023-05-03T08:41:47.138Z,16.73
2023-05-03T08:44:22.516Z,16.65
2023-05-03T08:46:53.575Z,16.26
2023-05-03T08:49:22.579Z,15.61
2023-05-03T08:51:51.519Z,15.93
2023-05-03T08:54:21.349Z,16.16
2023-05-03T08:56:49.749Z,15.58
2023-05-03T08:59:17.894Z,15.55
2023-05-03T09:01:45.906Z,15.34
2023-05-03T09:04:14.234Z,15.74
2023-05-03T09:06:42.331Z,15.63
2023-05-03T09:09:11.117Z,16.04
2023-05-03T09:11:39.939Z,15.85
2023-05-03T09:14:16.249Z,16.69
2023-05-03T09:16:46.709Z,17.16
2023-05-03T09:19:16.339Z,16.57
2023-05-03T09:21:49.529Z,16.79
2023-05-03T09:24:19.880Z,16.81
2023-05-03T09:26:50.264Z,16.00
2023-05-03T09:29:48.537Z,17.26
2023-05-03T09:32:17.626Z,18.46
2023-05-03T09:34:46.240Z,18.32
2023-05-03T09:37:14.714Z,17.98
2023-05-03T09:39:45.127Z,17.12
2023-05-03T09:42:18.897Z,16.04
2023-05-03T09:44:48.998Z,16.34
2023-05-03T09:47:17.540Z,17.25
2023-05-03T09:49:45.841Z,18.68
2023-05-03T09:52:13.776Z,20.42
2023-05-03T09:54:43.807Z,22.26
2023-05-03T09:57:14.898Z,23.45
2023-05-03T09:59:47.062Z,22.09
2023-05-03T10:02:16.491Z,21.00
2023-05-03T10:04:51.659Z,20.21
2023-05-03T10:07:22.850Z,20.13
2023-05-03T10:09:51.130Z,21.47
2023-05-03T10:12:20.548Z,22.83
2023-05-03T10:14:51.582Z,23.63
2023-05-03T10:17:46.929Z,23.88
2023-05-03T10:20:27.502Z,24.58
2023-05-03T10:23:11.702Z,25.94
2023-05-03T10:26:00.703Z,26.75
2023-05-03T10:28:28.824Z,27.91
2023-05-03T10:30:57.092Z,28.42
2023-05-03T10:33:37.423Z,28.08
2023-05-03T10:36:07.610Z,28.31
2023-05-03T10:38:36.870Z,28.03
2023-05-03T10:41:07.254Z,28.11
2023-05-03T10:43:37.786Z,28.37
2023-05-03T10:46:09.090Z,28.13
2023-05-03T10:48:36.819Z,28.08
2023-05-03T10:51:30.800Z,27.95
2023-05-03T10:53:58.737Z,28.04
2023-05-03T10:56:26.764Z,28.14
2023-05-03T10:58:56.654Z,28.13
2023-05-03T11:01:27.255Z,28.03
2023-05-03T11:04:00.475Z,27.84
2023-05-03T11:06:36.958Z,27.22
2023-05-03T11:09:07.409Z,26.71
2023-05-03T11:11:39.568Z,26.75
2023-05-03T11:14:11.620Z,27.67
2023-05-03T11:16:47.726Z,27.23
2023-05-03T11:19:16.570Z,27.61
2023-05-03T11:21:46.322Z,28.14
2023-05-03T11:24:14.651Z,28.90
2023-05-03T11:26:42.565Z,29.36
2023-05-03T11:29:14.042Z,29.34
2023-05-03T11:31:43.396Z,29.70
2023-05-03T11:34:12.999Z,28.63
2023-05-03T11:36:42.450Z,29.19
2023-05-03T11:39:13.171Z,29.19
2023-05-03T11:41:42.418Z,29.00
2023-05-03T11:44:17.307Z,28.84
2023-05-03T11:46:47.619Z,28.59
2023-05-03T11:49:19.750Z,27.77
2023-05-03T11:51:50.975Z,28.28
2023-05-03T11:54:25.922Z,27.40
2023-05-03T11:56:59.738Z,27.08
2023-05-03T11:59:40.739Z,26.53
2023-05-03T12:02:13.102Z,27.09
2023-05-03T12:04:43.517Z,28.33
2023-05-03T12:07:15.212Z,28.78
2023-05-03T12:09:53.240Z,28.54
2023-05-03T12:12:32.168Z,28.59
2023-05-03T12:15:04.317Z,29.11
2023-05-03T12:17:44.018Z,29.08
2023-05-03T12:22:56.245Z,28.49
2023-05-03T12:25:27.287Z,27.89
2023-05-03T12:28:17.791Z,28.17
2023-05-03T12:30:47.723Z,28.68
2023-05-03T12:33:17.066Z,29.04
2023-05-03T12:35:47.849Z,29.03
2023-05-03T12:38:17.789Z,29.17
2023-05-03T12:40:47.336Z,29.13
2023-05-03T12:43:16.284Z,29.34
2023-05-03T12:45:48.642Z,29.40
2023-05-03T12:48:25.054Z,28.85
2023-05-03T12:51:05.070Z,28.96
2023-05-03T12:53:46.896Z,28.75
2023-05-03T12:56:15.481Z,29.06
2023-05-03T12:59:07.611Z,29.56
2023-05-03T13:06:42.119Z,30.40
2023-05-03T13:09:19.249Z,30.28
2023-05-03T13:11:52.835Z,30.01
2023-05-03T13:14:21.941Z,30.62
2023-05-03T13:16:49.955Z,30.98
2023-05-03T13:19:18.208Z,30.78
2023-05-03T13:21:48.497Z,31.15
2023-05-03T13:24:16.824Z,31.29
2023-05-03T13:26:44.563Z,31.97
2023-05-03T13:29:12.576Z,31.91
2023-05-03T13:31:40.442Z,32.02
2023-05-03T13:34:08.411Z,31.63
2023-05-03T13:36:36.147Z,31.25
2023-05-03T13:39:04.182Z,31.90
2023-05-03T13:41:32.538Z,32.42
2023-05-03T13:44:00.863Z,32.33
2023-05-03T13:46:28.694Z,32.15
2023-05-03T13:48:56.804Z,31.39
2023-05-03T13:51:25.687Z,31.39
2023-05-03T13:53:54.086Z,31.06
2023-05-03T13:56:21.984Z,31.64
2023-05-03T13:58:49.889Z,31.79
2023-05-03T14:01:18.053Z,31.44
2023-05-03T14:03:46.321Z,31.47
2023-05-03T14:06:14.235Z,31.62
2023-05-03T14:08:42.210Z,30.93
2023-05-03T14:11:21.762Z,30.91
2023-05-03T14:13:56.915Z,31.00
2023-05-03T14:16:40.025Z,31.30
2023-05-03T14:19:12.916Z,31.24
2023-05-03T14:21:45.394Z,31.73
2023-05-03T14:24:14.225Z,31.39
2023-05-03T14:26:42.156Z,31.81
2023-05-03T14:29:10.149Z,31.84
2023-05-03T14:31:37.893Z,32.02
2023-05-03T14:34:06.372Z,32.23
2023-05-03T14:36:38.767Z,31.92
2023-05-03T14:39:06.967Z,32.01
2023-05-03T14:41:34.962Z,32.01
2023-05-03T14:44:03.431Z,31.46
2023-05-03T14:46:31.280Z,31.91
2023-05-03T14:48:59.805Z,31.22
2023-05-03T14:51:28.048Z,31.33
2023-05-03T14:53:56.066Z,32.01
2023-05-03T14:56:23.854Z,31.55
2023-05-03T14:58:51.930Z,31.10
2023-05-03T15:01:23.725Z,31.45
2023-05-03T15:03:52.382Z,31.84
2023-05-03T15:06:33.055Z,31.99
2023-05-03T15:09:01.094Z,31.30
2023-05-03T15:11:28.872Z,31.25
2023-05-03T15:13:56.986Z,30.39
2023-05-03T15:16:24.918Z,29.75
2023-05-03T15:18:53.145Z,29.21
2023-05-03T15:21:21.279Z,29.12
2023-05-03T15:23:49.723Z,29.08
2023-05-03T15:26:17.546Z,29.20
2023-05-03T15:28:45.774Z,29.31
2023-05-03T15:31:14.921Z,28.48
2023-05-03T15:33:44.592Z,28.33
2023-05-03T15:36:13.714Z,28.59
2023-05-03T15:38:41.679Z,28.79
2023-05-03T15:41:09.435Z,28.79
2023-05-03T15:43:37.705Z,28.51
2023-05-03T15:46:05.682Z,28.65
2023-05-03T15:48:33.904Z,29.08
2023-05-03T15:51:01.718Z,29.15
2023-05-03T15:53:30.001Z,29.16
2023-05-03T15:55:58.249Z,29.03
2023-05-03T15:58:30.572Z,29.51
2023-05-03T16:00:59.436Z,29.17
2023-05-03T16:03:28.709Z,29.05
2023-05-03T16:05:57.301Z,29.25
2023-05-03T16:08:26.334Z,29.23
2023-05-03T16:10:53.992Z,29.22
2023-05-03T16:13:22.177Z,29.79
2023-05-03T16:15:52.546Z,29.85
2023-05-03T16:18:20.851Z,29.49
2023-05-03T16:20:49.583Z,29.43
2023-05-03T16:23:17.574Z,29.27
2023-05-03T16:25:45.414Z,29.33
2023-05-03T16:28:13.564Z,29.38
2023-05-03T16:30:41.206Z,29.90
2023-05-03T16:33:10.388Z,30.14
2023-05-03T16:35:38.186Z,30.20
2023-05-03T16:38:07.334Z,30.40
2023-05-03T16:40:35.084Z,30.64
2023-05-03T16:43:03.083Z,30.87
2023-05-03T16:45:30.745Z,30.96
2023-05-03T16:47:58.704Z,31.05
2023-05-03T16:50:26.481Z,31.20
2023-05-03T16:52:54.660Z,31.56
2023-05-03T16:55:23.196Z,31.65
2023-05-03T16:57:51.259Z,32.26
2023-05-03T17:00:20.927Z,32.02
2023-05-03T17:02:49.205Z,32.11
2023-05-03T17:05:17.012Z,31.95
2023-05-03T17:07:46.093Z,32.20
2023-05-03T17:10:13.731Z,32.40
2023-05-03T17:12:41.933Z,32.58
2023-05-03T17:17:38.228Z,32.96
2023-05-03T17:20:07.358Z,32.89
2023-05-03T17:22:36.129Z,33.01
2023-05-03T17:25:04.139Z,33.46
2023-05-03T17:27:32.227Z,33.81
2023-05-03T17:30:00.189Z,34.19
2023-05-03T17:32:28.171Z,34.37
2023-05-03T17:34:56.902Z,34.51
2023-05-03T17:37:25.346Z,34.89
2023-05-03T17:39:53.071Z,34.71
2023-05-03T17:42:21.034Z,34.78
2023-05-03T17:44:54.804Z,34.87
2023-05-03T17:47:25.134Z,35.41
2023-05-03T17:49:53.044Z,36.30
2023-05-03T17:52:21.112Z,36.88
2023-05-03T17:54:52.093Z,36.80
2023-05-03T17:57:23.174Z,37.04
2023-05-03T17:59:51.811Z,37.68
2023-05-03T18:02:21.258Z,37.96
2023-05-03T18:04:49.279Z,38.44
2023-05-03T18:07:17.246Z,38.40
2023-05-03T18:09:44.882Z,38.92
2023-05-03T18:12:14.305Z,39.61
2023-05-03T18:14:41.978Z,40.05
2023-05-03T18:17:09.877Z,40.76
2023-05-03T18:19:37.576Z,41.46
2023-05-03T18:22:06.574Z,41.81
2023-05-03T18:24:34.248Z,42.66
2023-05-03T18:27:02.538Z,43.09
2023-05-03T18:29:30.166Z,43.82
2023-05-03T18:31:58.561Z,44.25
2023-05-03T18:34:29.691Z,45.19
2023-05-03T18:36:57.617Z,46.46
2023-05-03T18:39:25.864Z,46.78
2023-05-03T18:41:53.507Z,47.33
2023-05-03T18:44:24.080Z,48.02
2023-05-03T18:46:52.477Z,49.11
2023-05-03T18:49:23.608Z,49.67
2023-05-03T18:51:51.339Z,50.15
2023-05-03T18:54:20.400Z,50.75
2023-05-03T18:56:48.320Z,51.12
2023-05-03T18:59:16.240Z,51.88
2023-05-03T19:01:44.289Z,52.50
2023-05-03T19:04:14.720Z,53.09
2023-05-03T19:06:42.557Z,53.78
2023-05-03T19:09:11.877Z,54.27
2023-05-03T19:11:42.804Z,54.99
2023-05-03T19:14:10.860Z,55.64
2023-05-03T19:16:38.816Z,56.34
2023-05-03T19:19:07.274Z,56.94
2023-05-03T19:21:37.762Z,57.51
2023-05-03T19:24:06.734Z,58.40
2023-05-03T19:26:34.349Z,58.83
2023-05-03T19:29:02.339Z,59.81
2023-05-03T19:31:30.490Z,60.09
2023-05-03T19:33:58.607Z,61.29
2023-05-03T19:36:27.551Z,61.78
2023-05-03T19:38:55.517Z,62.64
2023-05-03T19:41:23.176Z,63.60
2023-05-03T19:43:57.659Z,64.42
2023-05-03T19:46:25.441Z,65.04
2023-05-03T19:48:53.359Z,65.36
2023-05-03T19:51:21.182Z,65.86
2023-05-03T19:53:49.225Z,66.67
2023-05-03T19:56:18.444Z,67.00
2023-05-03T19:58:46.417Z,67.51
2023-05-03T20:01:14.494Z,67.96
2023-05-03T20:03:42.609Z,68.58
2023-05-03T20:06:11.161Z,68.96
2023-05-03T20:08:39.067Z,69.70
2023-05-03T20:11:07.199Z,70.39
2023-05-03T20:13:34.900Z,70.70
2023-05-03T20:16:04.992Z,70.42
2023-05-03T20:18:32.798Z,70.96
2023-05-03T20:21:00.713Z,71.26
2023-05-03T20:23:28.550Z,71.72
2023-05-03T20:25:56.234Z,71.58
2023-05-03T20:28:24.455Z,71.31
2023-05-03T20:30:52.528Z,71.92
2023-05-03T20:33:20.538Z,71.96
2023-05-03T20:35:48.501Z,72.51
2023-05-03T20:38:16.455Z,73.13
2023-05-03T20:40:44.067Z,73.23
2023-05-03T20:43:12.131Z,73.96
2023-05-03T20:45:39.781Z,74.24
2023-05-03T20:48:08.073Z,74.49
2023-05-03T20:50:35.922Z,74.43
2023-05-03T20:53:04.057Z,75.21
2023-05-03T20:55:31.808Z,74.53
2023-05-03T20:57:59.817Z,75.50
2023-05-03T21:00:27.682Z,75.69
2023-05-03T21:02:55.709Z,75.56
2023-05-03T21:05:23.638Z,75.69
2023-05-03T21:07:52.458Z,75.80
2023-05-03T21:10:20.249Z,75.55
2023-05-03T21:12:48.156Z,75.50
2023-05-03T21:15:15.922Z,76.20
2023-05-03T21:17:43.939Z,76.55
2023-05-03T21:20:12.057Z,76.85
2023-05-03T21:22:40.020Z,77.34
2023-05-03T21:25:08.413Z,77.76
2023-05-03T21:27:36.379Z,77.59
2023-05-03T21:30:04.473Z,77.90
2023-05-03T21:32:33.394Z,78.07
2023-05-03T21:35:01.120Z,77.99
2023-05-03T21:37:29.069Z,78.32
2023-05-03T21:40:05.342Z,78.88
2023-05-03T21:42:33.465Z,78.97
2023-05-03T21:45:01.568Z,79.37
2023-05-03T21:47:30.710Z,79.99
2023-05-03T21:49:59.178Z,80.59
2023-05-03T21:52:27.326Z,80.39
2023-05-03T21:54:55.116Z,80.89
2023-05-03T21:57:23.089Z,81.05
2023-05-03T21:59:51.220Z,81.34
2023-05-03T22:02:19.498Z,82.00
2023-05-03T22:04:48.715Z,81.49
2023-05-03T22:07:17.144Z,81.91
2023-05-03T22:09:48.766Z,82.26
2023-05-03T22:12:24.121Z,82.48
2023-05-03T22:14:53.016Z,82.57
2023-05-03T22:17:21.166Z,83.32
2023-05-03T22:19:48.910Z,82.87
2023-05-03T22:22:17.190Z,83.39
2023-05-03T22:24:44.805Z,83.89
2023-05-03T22:27:13.041Z,83.42
2023-05-03T22:29:40.699Z,83.74
2023-05-03T22:32:08.833Z,83.88
2023-05-03T22:34:36.501Z,83.85
2023-05-03T22:37:04.574Z,83.74
2023-05-03T22:39:32.385Z,84.09
2023-05-03T22:42:00.866Z,84.22
2023-05-03T22:44:28.630Z,84.19
2023-05-03T22:46:56.678Z,84.91
2023-05-03T22:49:24.722Z,85.15
2023-05-03T22:51:52.616Z,82.84
2023-05-03T22:54:21.870Z,83.12
2023-05-03T22:56:51.363Z,82.99
2023-05-03T22:59:19.189Z,83.25
2023-05-03T23:01:49.393Z,83.38
2023-05-03T23:04:17.395Z,83.75
2023-05-03T23:06:45.382Z,83.82
2023-05-03T23:09:13.118Z,84.41
2023-05-03T23:11:41.115Z,85.01
2023-05-03T23:14:08.750Z,85.31
2023-05-03T23:16:37.079Z,85.74
2023-05-03T23:19:04.825Z,85.99
2023-05-03T23:21:32.744Z,85.90
2023-05-03T23:24:00.459Z,86.13
2023-05-03T23:26:28.376Z,86.28
2023-05-03T23:28:56.507Z,86.39
2023-05-03T23:31:25.151Z,86.58
2023-05-03T23:33:53.315Z,86.54
2023-05-03T23:36:21.223Z,86.88
2023-05-03T23:38:50.736Z,86.89
2023-05-03T23:41:18.972Z,87.11
2023-05-03T23:43:46.605Z,87.24
2023-05-03T23:46:14.671Z,87.06
2023-05-03T23:48:42.332Z,86.89
2023-05-03T23:51:10.639Z,87.27
2023-05-03T23:53:38.316Z,87.48
2023-05-03T23:56:06.614Z,87.75
2023-05-03T23:58:34.309Z,87.92
